sensor_id;sensor_type;location;lat;lon;timestamp;pressure;altitude;pressure_sealevel;temperature;humidity
39715;BME280;54166;53.172;-6.552;2022-07-10T00:01:50;100728.56;;;22.02;37.44
39715;BME280;54166;53.172;-6.552;2022-07-10T00:04:17;100728.92;;;22.02;37.44
39715;BME280;54166;53.172;-6.552;2022-07-10T00:06:45;100727.99;;;22.36;37.44
39715;BME280;54166;53.172;-6.552;2022-07-10T00:09:13;100728.07;;;22.35;37.46
39715;BME280;54166;53.172;-6.552;2022-07-10T00:11:41;100728.25;;;22.02;37.40
39715;BME280;54166;53.172;-6.552;2022-07-10T00:14:08;100721.87;;;22.01;37.36
39715;BME280;54166;53.172;-6.552;2022-07-10T00:16:36;100716.75;;;22.00;37.33
39715;BME280;54166;53.172;-6.552;2022-07-10T00:19:03;100713.82;;;21.61;37.34
39715;BME280;54166;53.172;-6.552;2022-07-10T00:21:31;100715.58;;;22.34;37.35
39715;BME280;54166;53.172;-6.552;2022-07-10T00:23:59;100713.45;;;21.60;37.34
39715;BME280;54166;53.172;-6.552;2022-07-10T00:26:27;100710.45;;;22.32;37.33
39715;BME280;54166;53.172;-6.552;2022-07-10T00:28:54;100709.54;;;22.32;37.33
39715;BME280;54166;53.172;-6.552;2022-07-10T00:31:22;100710.33;;;22.32;37.32
39715;BME280;54166;53.172;-6.552;2022-07-10T00:33:49;100707.21;;;22.32;37.35
39715;BME280;54166;53.172;-6.552;2022-07-10T00:36:17;100708.08;;;22.31;37.27
39715;BME280;54166;53.172;-6.552;2022-07-10T00:38:45;100707.51;;;21.98;37.30
39715;BME280;54166;53.172;-6.552;2022-07-10T00:41:12;100702.64;;;22.30;37.30
39715;BME280;54166;53.172;-6.552;2022-07-10T00:43:57;100700.16;;;21.97;37.28
39715;BME280;54166;53.172;-6.552;2022-07-10T00:46:25;100698.29;;;21.95;37.32
39715;BME280;54166;53.172;-6.552;2022-07-10T00:48:53;100695.84;;;21.95;37.30
39715;BME280;54166;53.172;-6.552;2022-07-10T00:51:25;100691.55;;;21.57;37.29
39715;BME280;54166;53.172;-6.552;2022-07-10T00:53:53;100686.95;;;21.97;37.29
39715;BME280;54166;53.172;-6.552;2022-07-10T00:56:22;100683.12;;;21.97;37.30
39715;BME280;54166;53.172;-6.552;2022-07-10T00:58:50;100678.58;;;21.96;37.30
39715;BME280;54166;53.172;-6.552;2022-07-10T01:01:18;100671.87;;;21.96;37.32
39715;BME280;54166;53.172;-6.552;2022-07-10T01:03:46;100669.56;;;22.30;37.30
39715;BME280;54166;53.172;-6.552;2022-07-10T01:06:14;100665.80;;;22.29;37.29
39715;BME280;54166;53.172;-6.552;2022-07-10T01:08:42;100663.51;;;22.30;37.29
39715;BME280;54166;53.172;-6.552;2022-07-10T01:11:09;100660.25;;;22.30;37.28
39715;BME280;54166;53.172;-6.552;2022-07-10T01:13:37;100658.55;;;21.57;37.24
39715;BME280;54166;53.172;-6.552;2022-07-10T01:16:10;100653.70;;;21.96;37.24
39715;BME280;54166;53.172;-6.552;2022-07-10T01:18:37;100656.77;;;21.95;37.23
39715;BME280;54166;53.172;-6.552;2022-07-10T01:21:05;100654.70;;;21.55;37.23
39715;BME280;54166;53.172;-6.552;2022-07-10T01:23:32;100651.04;;;22.30;37.20
39715;BME280;54166;53.172;-6.552;2022-07-10T01:26:00;100646.35;;;22.29;37.18
39715;BME280;54166;53.172;-6.552;2022-07-10T01:28:29;100645.47;;;21.99;37.13
39715;BME280;54166;53.172;-6.552;2022-07-10T01:30:56;100644.68;;;22.25;37.21
39715;BME280;54166;53.172;-6.552;2022-07-10T01:33:24;100645.68;;;21.92;37.23
39715;BME280;54166;53.172;-6.552;2022-07-10T01:35:51;100646.27;;;21.92;37.21
39715;BME280;54166;53.172;-6.552;2022-07-10T01:38:19;100641.69;;;21.92;37.20
39715;BME280;54166;53.172;-6.552;2022-07-10T01:40:47;100641.80;;;22.26;37.19
39715;BME280;54166;53.172;-6.552;2022-07-10T01:43:14;100638.95;;;21.52;37.19
39715;BME280;54166;53.172;-6.552;2022-07-10T01:45:42;100640.57;;;21.52;37.17
39715;BME280;54166;53.172;-6.552;2022-07-10T01:48:09;100635.18;;;21.52;37.16
39715;BME280;54166;53.172;-6.552;2022-07-10T01:50:37;100635.36;;;21.91;37.10
39715;BME280;54166;53.172;-6.552;2022-07-10T01:53:05;100637.19;;;21.91;37.11
39715;BME280;54166;53.172;-6.552;2022-07-10T01:55:33;100636.44;;;21.51;37.10
39715;BME280;54166;53.172;-6.552;2022-07-10T01:58:00;100636.67;;;21.51;37.12
39715;BME280;54166;53.172;-6.552;2022-07-10T02:00:27;100635.50;;;21.92;37.23
39715;BME280;54166;53.172;-6.552;2022-07-10T02:02:55;100634.56;;;22.25;37.11
39715;BME280;54166;53.172;-6.552;2022-07-10T02:05:22;100635.27;;;22.25;37.19
39715;BME280;54166;53.172;-6.552;2022-07-10T02:07:50;100631.30;;;21.93;37.05
39715;BME280;54166;53.172;-6.552;2022-07-10T02:10:18;100632.15;;;22.26;37.00
39715;BME280;54166;53.172;-6.552;2022-07-10T02:12:45;100633.43;;;21.93;37.01
39715;BME280;54166;53.172;-6.552;2022-07-10T02:15:13;100631.25;;;21.93;37.06
39715;BME280;54166;53.172;-6.552;2022-07-10T02:17:41;100630.54;;;21.54;37.05
39715;BME280;54166;53.172;-6.552;2022-07-10T02:20:09;100623.27;;;22.27;37.04
39715;BME280;54166;53.172;-6.552;2022-07-10T02:22:36;100618.90;;;21.93;37.05
39715;BME280;54166;53.172;-6.552;2022-07-10T02:25:06;100614.70;;;21.94;37.09
39715;BME280;54166;53.172;-6.552;2022-07-10T02:27:34;100612.03;;;21.93;37.06
39715;BME280;54166;53.172;-6.552;2022-07-10T02:31:07;100608.82;;;23.66;37.12
39715;BME280;54166;53.172;-6.552;2022-07-10T02:33:42;100609.89;;;21.81;37.19
39715;BME280;54166;53.172;-6.552;2022-07-10T02:36:16;100607.92;;;22.18;37.15
39715;BME280;54166;53.172;-6.552;2022-07-10T02:38:43;100605.94;;;22.20;37.13
39715;BME280;54166;53.172;-6.552;2022-07-10T02:41:11;100606.85;;;22.23;37.11
39715;BME280;54166;53.172;-6.552;2022-07-10T02:43:39;100606.87;;;22.23;37.09
39715;BME280;54166;53.172;-6.552;2022-07-10T02:46:06;100603.65;;;22.25;37.09
39715;BME280;54166;53.172;-6.552;2022-07-10T02:48:33;100598.68;;;21.92;37.07
39715;BME280;54166;53.172;-6.552;2022-07-10T02:51:01;100596.48;;;21.92;37.09
39715;BME280;54166;53.172;-6.552;2022-07-10T02:53:29;100593.30;;;21.93;37.15
39715;BME280;54166;53.172;-6.552;2022-07-10T02:55:56;100591.91;;;22.27;37.17
39715;BME280;54166;53.172;-6.552;2022-07-10T02:58:24;100591.68;;;21.94;37.16
39715;BME280;54166;53.172;-6.552;2022-07-10T03:00:52;100592.70;;;21.94;37.14
39715;BME280;54166;53.172;-6.552;2022-07-10T03:03:19;100592.10;;;21.93;37.10
39715;BME280;54166;53.172;-6.552;2022-07-10T03:05:47;100592.29;;;22.27;37.09
39715;BME280;54166;53.172;-6.552;2022-07-10T03:11:50;100584.94;;;21.86;36.73
39715;BME280;54166;53.172;-6.552;2022-07-10T03:14:17;100584.64;;;21.79;36.81
39715;BME280;54166;53.172;-6.552;2022-07-10T03:16:45;100581.88;;;21.77;36.90
39715;BME280;54166;53.172;-6.552;2022-07-10T03:19:12;100580.72;;;21.78;36.80
39715;BME280;54166;53.172;-6.552;2022-07-10T03:21:41;100578.58;;;22.14;36.81
39715;BME280;54166;53.172;-6.552;2022-07-10T03:24:08;100572.76;;;22.06;36.91
39715;BME280;54166;53.172;-6.552;2022-07-10T03:26:35;100570.07;;;21.63;36.95
39715;BME280;54166;53.172;-6.552;2022-07-10T03:29:02;100566.34;;;21.61;36.99
39715;BME280;54166;53.172;-6.552;2022-07-10T03:31:29;100565.11;;;22.32;37.01
39715;BME280;54166;53.172;-6.552;2022-07-10T03:33:57;100562.67;;;22.32;37.03
39715;BME280;54166;53.172;-6.552;2022-07-10T03:36:25;100560.71;;;22.31;37.01
39715;BME280;54166;53.172;-6.552;2022-07-10T03:38:53;100557.84;;;22.31;37.03
39715;BME280;54166;53.172;-6.552;2022-07-10T03:41:20;100554.86;;;22.31;37.01
39715;BME280;54166;53.172;-6.552;2022-07-10T03:43:48;100556.69;;;21.97;37.02
39715;BME280;54166;53.172;-6.552;2022-07-10T03:46:15;100551.09;;;21.96;37.04
39715;BME280;54166;53.172;-6.552;2022-07-10T03:48:42;100550.80;;;21.57;37.03
39715;BME280;54166;53.172;-6.552;2022-07-10T03:51:09;100549.44;;;22.30;37.04
39715;BME280;54166;53.172;-6.552;2022-07-10T03:53:36;100552.37;;;22.30;37.04
39715;BME280;54166;53.172;-6.552;2022-07-10T03:56:03;100549.88;;;21.96;37.03
39715;BME280;54166;53.172;-6.552;2022-07-10T03:58:30;100543.10;;;21.95;37.03
39715;BME280;54166;53.172;-6.552;2022-07-10T04:00:57;100539.69;;;22.28;37.02
39715;BME280;54166;53.172;-6.552;2022-07-10T04:03:25;100536.53;;;21.95;37.04
39715;BME280;54166;53.172;-6.552;2022-07-10T04:05:52;100532.48;;;22.28;37.05
39715;BME280;54166;53.172;-6.552;2022-07-10T04:08:19;100525.27;;;22.28;37.05
39715;BME280;54166;53.172;-6.552;2022-07-10T04:10:47;100523.31;;;21.54;37.07
39715;BME280;54166;53.172;-6.552;2022-07-10T04:13:14;100520.56;;;21.94;37.11
39715;BME280;54166;53.172;-6.552;2022-07-10T04:15:40;100522.46;;;21.94;37.16
39715;BME280;54166;53.172;-6.552;2022-07-10T04:18:07;100521.07;;;22.27;37.07
39715;BME280;54166;53.172;-6.552;2022-07-10T04:20:35;100523.48;;;21.94;37.10
39715;BME280;54166;53.172;-6.552;2022-07-10T04:23:03;100519.28;;;21.54;37.05
39715;BME280;54166;53.172;-6.552;2022-07-10T04:25:30;100522.15;;;21.54;37.03
39715;BME280;54166;53.172;-6.552;2022-07-10T04:27:57;100521.88;;;21.53;37.03
39715;BME280;54166;53.172;-6.552;2022-07-10T04:30:24;100523.63;;;22.27;37.01
39715;BME280;54166;53.172;-6.552;2022-07-10T04:32:52;100528.33;;;21.93;36.98
39715;BME280;54166;53.172;-6.552;2022-07-10T04:35:19;100532.63;;;21.54;36.96
39715;BME280;54166;53.172;-6.552;2022-07-10T04:37:46;100532.23;;;21.94;36.97
39715;BME280;54166;53.172;-6.552;2022-07-10T04:40:14;100529.93;;;22.26;36.96
39715;BME280;54166;53.172;-6.552;2022-07-10T04:42:41;100529.19;;;21.92;36.96
39715;BME280;54166;53.172;-6.552;2022-07-10T04:45:09;100530.32;;;21.92;36.97
39715;BME280;54166;53.172;-6.552;2022-07-10T04:47:37;100527.15;;;21.93;36.99
39715;BME280;54166;53.172;-6.552;2022-07-10T04:50:05;100524.04;;;21.93;36.97
39715;BME280;54166;53.172;-6.552;2022-07-10T04:52:32;100519.42;;;22.26;36.96
39715;BME280;54166;53.172;-6.552;2022-07-10T04:55:00;100516.43;;;21.92;36.96
39715;BME280;54166;53.172;-6.552;2022-07-10T04:57:28;100514.88;;;21.93;36.96
39715;BME280;54166;53.172;-6.552;2022-07-10T04:59:55;100513.34;;;21.92;36.94
39715;BME280;54166;53.172;-6.552;2022-07-10T05:02:22;100509.43;;;21.51;36.94
39715;BME280;54166;53.172;-6.552;2022-07-10T05:04:50;100506.70;;;22.24;36.96
39715;BME280;54166;53.172;-6.552;2022-07-10T05:07:17;100505.76;;;21.90;36.96
39715;BME280;54166;53.172;-6.552;2022-07-10T05:09:44;100503.72;;;21.90;36.95
39715;BME280;54166;53.172;-6.552;2022-07-10T05:12:11;100503.90;;;21.90;36.96
39715;BME280;54166;53.172;-6.552;2022-07-10T05:14:39;100504.40;;;21.90;37.06
39715;BME280;54166;53.172;-6.552;2022-07-10T05:17:06;100505.07;;;21.50;37.07
39715;BME280;54166;53.172;-6.552;2022-07-10T05:19:34;100504.53;;;21.90;37.10
39715;BME280;54166;53.172;-6.552;2022-07-10T05:22:02;100502.72;;;21.90;37.19
39715;BME280;54166;53.172;-6.552;2022-07-10T05:24:29;100504.06;;;21.90;37.25
39715;BME280;54166;53.172;-6.552;2022-07-10T05:26:57;100502.11;;;21.56;37.14
39715;BME280;54166;53.172;-6.552;2022-07-10T05:29:24;100503.17;;;22.33;37.06
39715;BME280;54166;53.172;-6.552;2022-07-10T05:31:52;100502.61;;;22.35;37.17
39715;BME280;54166;53.172;-6.552;2022-07-10T05:34:19;100507.19;;;21.97;37.10
39715;BME280;54166;53.172;-6.552;2022-07-10T05:36:47;100507.27;;;21.97;37.10
39715;BME280;54166;53.172;-6.552;2022-07-10T05:39:14;100508.05;;;21.97;37.13
39715;BME280;54166;53.172;-6.552;2022-07-10T05:41:41;100510.57;;;21.95;37.06
39715;BME280;54166;53.172;-6.552;2022-07-10T05:44:08;100514.79;;;21.93;37.06
39715;BME280;54166;53.172;-6.552;2022-07-10T05:46:36;100516.77;;;21.92;37.07
39715;BME280;54166;53.172;-6.552;2022-07-10T05:49:03;100514.78;;;21.91;37.07
39715;BME280;54166;53.172;-6.552;2022-07-10T05:51:30;100515.92;;;22.25;37.06
39715;BME280;54166;53.172;-6.552;2022-07-10T05:53:58;100519.15;;;21.51;37.05
39715;BME280;54166;53.172;-6.552;2022-07-10T05:56:26;100521.44;;;22.24;37.06
39715;BME280;54166;53.172;-6.552;2022-07-10T05:58:53;100517.68;;;21.90;37.07
39715;BME280;54166;53.172;-6.552;2022-07-10T06:01:21;100514.53;;;22.24;37.07
39715;BME280;54166;53.172;-6.552;2022-07-10T06:03:49;100513.87;;;21.50;37.09
39715;BME280;54166;53.172;-6.552;2022-07-10T06:06:16;100510.99;;;21.90;37.12
39715;BME280;54166;53.172;-6.552;2022-07-10T06:08:44;100508.23;;;22.22;37.10
39715;BME280;54166;53.172;-6.552;2022-07-10T06:11:12;100511.07;;;21.90;37.08
39715;BME280;54166;53.172;-6.552;2022-07-10T06:13:39;100511.93;;;22.22;37.09
39715;BME280;54166;53.172;-6.552;2022-07-10T06:16:07;100514.17;;;21.89;37.15
39715;BME280;54166;53.172;-6.552;2022-07-10T06:18:35;100512.11;;;22.22;37.12
39715;BME280;54166;53.172;-6.552;2022-07-10T06:21:03;100513.01;;;21.89;37.12
39715;BME280;54166;53.172;-6.552;2022-07-10T06:23:30;100514.39;;;21.88;37.17
39715;BME280;54166;53.172;-6.552;2022-07-10T06:25:58;100510.67;;;21.90;37.26
39715;BME280;54166;53.172;-6.552;2022-07-10T06:28:25;100505.73;;;21.89;37.23
39715;BME280;54166;53.172;-6.552;2022-07-10T06:30:53;100504.89;;;21.89;37.22
39715;BME280;54166;53.172;-6.552;2022-07-10T06:33:21;100505.51;;;21.89;37.26
39715;BME280;54166;53.172;-6.552;2022-07-10T06:35:47;100505.56;;;22.21;37.27
39715;BME280;54166;53.172;-6.552;2022-07-10T06:38:17;100501.71;;;21.88;37.26
39715;BME280;54166;53.172;-6.552;2022-07-10T06:40:45;100499.38;;;21.89;37.25
39715;BME280;54166;53.172;-6.552;2022-07-10T06:43:14;100495.41;;;21.88;37.30
39715;BME280;54166;53.172;-6.552;2022-07-10T06:45:42;100491.15;;;22.23;37.32
39715;BME280;54166;53.172;-6.552;2022-07-10T06:48:10;100491.35;;;21.90;37.29
39715;BME280;54166;53.172;-6.552;2022-07-10T06:50:38;100493.09;;;22.23;37.29
39715;BME280;54166;53.172;-6.552;2022-07-10T06:53:06;100497.76;;;21.90;37.34
39715;BME280;54166;53.172;-6.552;2022-07-10T06:55:34;100496.68;;;22.24;37.31
39715;BME280;54166;53.172;-6.552;2022-07-10T06:58:01;100499.27;;;21.90;37.35
39715;BME280;54166;53.172;-6.552;2022-07-10T07:00:29;100498.39;;;22.23;37.31
39715;BME280;54166;53.172;-6.552;2022-07-10T07:02:56;100497.81;;;21.90;37.39
39715;BME280;54166;53.172;-6.552;2022-07-10T07:05:24;100497.17;;;21.91;37.56
39715;BME280;54166;53.172;-6.552;2022-07-10T07:07:52;100496.99;;;22.24;37.56
39715;BME280;54166;53.172;-6.552;2022-07-10T07:10:18;100497.00;;;22.24;37.39
39715;BME280;54166;53.172;-6.552;2022-07-10T07:12:46;100496.90;;;21.90;37.07
39715;BME280;54166;53.172;-6.552;2022-07-10T07:15:14;100499.39;;;21.91;37.07
39715;BME280;54166;53.172;-6.552;2022-07-10T07:17:41;100495.38;;;21.90;36.99
39715;BME280;54166;53.172;-6.552;2022-07-10T07:20:09;100494.13;;;21.91;36.92
39715;BME280;54166;53.172;-6.552;2022-07-10T07:22:37;100492.16;;;21.91;36.86
39715;BME280;54166;53.172;-6.552;2022-07-10T07:25:05;100490.66;;;21.90;36.89
39715;BME280;54166;53.172;-6.552;2022-07-10T07:27:33;100486.82;;;21.89;36.95
39715;BME280;54166;53.172;-6.552;2022-07-10T07:30:03;100488.88;;;22.22;36.95
39715;BME280;54166;53.172;-6.552;2022-07-10T07:32:30;100491.64;;;21.88;37.00
39715;BME280;54166;53.172;-6.552;2022-07-10T07:34:58;100492.32;;;21.88;37.07
39715;BME280;54166;53.172;-6.552;2022-07-10T07:37:35;100489.79;;;22.21;37.19
39715;BME280;54166;53.172;-6.552;2022-07-10T07:40:03;100491.23;;;21.87;37.29
39715;BME280;54166;53.172;-6.552;2022-07-10T07:42:31;100490.24;;;22.21;37.30
39715;BME280;54166;53.172;-6.552;2022-07-10T07:44:59;100488.79;;;22.22;37.33
39715;BME280;54166;53.172;-6.552;2022-07-10T07:47:27;100486.03;;;21.89;37.36
39715;BME280;54166;53.172;-6.552;2022-07-10T07:49:54;100485.57;;;21.89;37.36
39715;BME280;54166;53.172;-6.552;2022-07-10T07:52:22;100485.43;;;21.90;37.34
39715;BME280;54166;53.172;-6.552;2022-07-10T07:54:50;100483.05;;;21.90;37.22
39715;BME280;54166;53.172;-6.552;2022-07-10T07:57:17;100484.74;;;21.90;37.10
39715;BME280;54166;53.172;-6.552;2022-07-10T07:59:45;100481.15;;;22.23;37.07
39715;BME280;54166;53.172;-6.552;2022-07-10T08:02:13;100481.77;;;21.90;37.02
39715;BME280;54166;53.172;-6.552;2022-07-10T08:04:40;100479.86;;;22.23;37.00
39715;BME280;54166;53.172;-6.552;2022-07-10T08:07:08;100481.11;;;22.23;37.02
39715;BME280;54166;53.172;-6.552;2022-07-10T08:09:36;100481.13;;;22.22;37.06
39715;BME280;54166;53.172;-6.552;2022-07-10T08:12:03;100484.49;;;22.22;37.08
39715;BME280;54166;53.172;-6.552;2022-07-10T08:14:38;100487.74;;;21.89;37.16
39715;BME280;54166;53.172;-6.552;2022-07-10T08:17:05;100484.74;;;21.88;37.25
39715;BME280;54166;53.172;-6.552;2022-07-10T08:19:39;100482.56;;;21.49;37.19
39715;BME280;54166;53.172;-6.552;2022-07-10T08:22:07;100483.18;;;22.21;37.10
39715;BME280;54166;53.172;-6.552;2022-07-10T08:24:35;100482.66;;;22.21;37.08
39715;BME280;54166;53.172;-6.552;2022-07-10T08:27:03;100481.34;;;21.88;37.23
39715;BME280;54166;53.172;-6.552;2022-07-10T08:29:30;100479.63;;;22.22;37.30
39715;BME280;54166;53.172;-6.552;2022-07-10T08:31:58;100479.77;;;21.89;37.30
39715;BME280;54166;53.172;-6.552;2022-07-10T08:34:26;100480.16;;;22.23;37.30
39715;BME280;54166;53.172;-6.552;2022-07-10T08:36:53;100477.20;;;21.90;37.29
39715;BME280;54166;53.172;-6.552;2022-07-10T08:39:21;100479.98;;;21.91;37.33
39715;BME280;54166;53.172;-6.552;2022-07-10T08:41:48;100477.79;;;21.91;37.35
39715;BME280;54166;53.172;-6.552;2022-07-10T08:44:16;100479.97;;;21.91;37.38
39715;BME280;54166;53.172;-6.552;2022-07-10T08:46:44;100481.71;;;21.91;37.36
39715;BME280;54166;53.172;-6.552;2022-07-10T08:49:12;100483.75;;;21.51;37.29
39715;BME280;54166;53.172;-6.552;2022-07-10T08:51:41;100482.37;;;22.24;37.27
39715;BME280;54166;53.172;-6.552;2022-07-10T08:54:14;100479.70;;;21.88;37.33
39715;BME280;54166;53.172;-6.552;2022-07-10T08:56:41;100475.31;;;21.90;37.39
39715;BME280;54166;53.172;-6.552;2022-07-10T08:59:09;100470.46;;;22.22;37.29
39715;BME280;54166;53.172;-6.552;2022-07-10T09:01:38;100467.77;;;21.90;37.33
39715;BME280;54166;53.172;-6.552;2022-07-10T09:04:06;100461.68;;;22.23;37.20
39715;BME280;54166;53.172;-6.552;2022-07-10T09:06:34;100459.08;;;21.90;37.11
39715;BME280;54166;53.172;-6.552;2022-07-10T09:09:03;100459.41;;;22.24;37.07
39715;BME280;54166;53.172;-6.552;2022-07-10T09:11:31;100457.83;;;22.24;37.03
39715;BME280;54166;53.172;-6.552;2022-07-10T09:14:01;100456.98;;;21.91;37.04
39715;BME280;54166;53.172;-6.552;2022-07-10T09:16:30;100454.19;;;21.90;36.97
39715;BME280;54166;53.172;-6.552;2022-07-10T09:19:15;100454.87;;;21.51;36.94
39715;BME280;54166;53.172;-6.552;2022-07-10T09:21:43;100456.99;;;21.87;37.00
39715;BME280;54166;53.172;-6.552;2022-07-10T09:24:11;100455.06;;;22.21;37.03
39715;BME280;54166;53.172;-6.552;2022-07-10T09:26:39;100448.36;;;22.21;37.11
39715;BME280;54166;53.172;-6.552;2022-07-10T09:29:08;100446.80;;;22.22;37.15
39715;BME280;54166;53.172;-6.552;2022-07-10T09:31:52;100446.65;;;21.50;37.08
39715;BME280;54166;53.172;-6.552;2022-07-10T09:34:37;100441.62;;;22.19;37.21
39715;BME280;54166;53.172;-6.552;2022-07-10T09:37:22;100437.83;;;21.45;37.30
39715;BME280;54166;53.172;-6.552;2022-07-10T09:39:54;100435.67;;;21.85;37.33
39715;BME280;54166;53.172;-6.552;2022-07-10T09:42:28;100434.88;;;22.20;37.29
39715;BME280;54166;53.172;-6.552;2022-07-10T09:45:14;100431.47;;;22.21;37.25
39715;BME280;54166;53.172;-6.552;2022-07-10T09:47:42;100426.40;;;21.45;37.35
39715;BME280;54166;53.172;-6.552;2022-07-10T09:50:20;100420.19;;;21.49;37.37
39715;BME280;54166;53.172;-6.552;2022-07-10T09:52:50;100415.69;;;21.88;37.36
39715;BME280;54166;53.172;-6.552;2022-07-10T09:55:19;100411.88;;;21.89;37.36
39715;BME280;54166;53.172;-6.552;2022-07-10T09:57:52;100411.27;;;21.90;37.30
39715;BME280;54166;53.172;-6.552;2022-07-10T10:00:23;100413.98;;;22.23;37.27
39715;BME280;54166;53.172;-6.552;2022-07-10T10:02:52;100411.96;;;22.25;37.32
39715;BME280;54166;53.172;-6.552;2022-07-10T10:05:22;100406.88;;;22.25;37.26
39715;BME280;54166;53.172;-6.552;2022-07-10T10:07:51;100404.85;;;22.24;37.23
39715;BME280;54166;53.172;-6.552;2022-07-10T10:10:19;100405.13;;;21.92;37.26
39715;BME280;54166;53.172;-6.552;2022-07-10T10:12:52;100406.14;;;22.25;37.30
39715;BME280;54166;53.172;-6.552;2022-07-10T10:15:22;100403.47;;;22.24;37.32
39715;BME280;54166;53.172;-6.552;2022-07-10T10:17:51;100406.69;;;22.25;37.33
39715;BME280;54166;53.172;-6.552;2022-07-10T10:20:20;100401.33;;;21.92;37.36
39715;BME280;54166;53.172;-6.552;2022-07-10T10:22:49;100402.57;;;22.27;37.26
39715;BME280;54166;53.172;-6.552;2022-07-10T10:25:17;100406.90;;;21.94;37.14
39715;BME280;54166;53.172;-6.552;2022-07-10T10:27:45;100407.92;;;21.94;37.19
39715;BME280;54166;53.172;-6.552;2022-07-10T10:30:12;100411.22;;;21.93;37.26
39715;BME280;54166;53.172;-6.552;2022-07-10T10:32:40;100409.87;;;22.27;37.26
39715;BME280;54166;53.172;-6.552;2022-07-10T10:35:08;100407.34;;;22.27;37.13
39715;BME280;54166;53.172;-6.552;2022-07-10T10:37:37;100404.51;;;22.28;37.05
39715;BME280;54166;53.172;-6.552;2022-07-10T10:40:07;100398.22;;;21.54;37.15
39715;BME280;54166;53.172;-6.552;2022-07-10T10:42:36;100397.81;;;21.93;37.16
39715;BME280;54166;53.172;-6.552;2022-07-10T10:45:36;100397.06;;;22.99;37.14
39715;BME280;54166;53.172;-6.552;2022-07-10T10:48:06;100396.95;;;21.87;37.20
39715;BME280;54166;53.172;-6.552;2022-07-10T10:50:37;100396.21;;;21.90;37.20
39715;BME280;54166;53.172;-6.552;2022-07-10T10:53:05;100394.57;;;22.23;37.25
39715;BME280;54166;53.172;-6.552;2022-07-10T10:55:38;100394.33;;;21.50;37.26
39715;BME280;54166;53.172;-6.552;2022-07-10T10:58:15;100394.30;;;21.92;37.30
39715;BME280;54166;53.172;-6.552;2022-07-10T11:00:42;100396.39;;;21.91;37.27
39715;BME280;54166;53.172;-6.552;2022-07-10T11:03:15;100392.20;;;22.26;37.25
39715;BME280;54166;53.172;-6.552;2022-07-10T11:05:44;100388.58;;;21.93;37.26
39715;BME280;54166;53.172;-6.552;2022-07-10T11:08:12;100384.62;;;21.93;37.12
39715;BME280;54166;53.172;-6.552;2022-07-10T11:10:42;100384.44;;;21.94;37.09
39715;BME280;54166;53.172;-6.552;2022-07-10T11:13:11;100379.75;;;22.27;37.09
39715;BME280;54166;53.172;-6.552;2022-07-10T11:15:40;100378.64;;;22.27;37.12
39715;BME280;54166;53.172;-6.552;2022-07-10T11:18:09;100381.19;;;21.95;37.12
39715;BME280;54166;53.172;-6.552;2022-07-10T11:20:39;100382.26;;;22.28;37.09
39715;BME280;54166;53.172;-6.552;2022-07-10T11:23:31;100376.79;;;21.95;36.99
39715;BME280;54166;53.172;-6.552;2022-07-10T11:26:03;100372.87;;;21.49;37.02
39715;BME280;54166;53.172;-6.552;2022-07-10T11:28:41;100370.07;;;21.97;36.95
39715;BME280;54166;53.172;-6.552;2022-07-10T11:31:11;100362.21;;;21.94;37.07
39715;BME280;54166;53.172;-6.552;2022-07-10T11:33:41;100358.30;;;21.93;37.12
39715;BME280;54166;53.172;-6.552;2022-07-10T11:36:10;100356.99;;;21.93;37.11
39715;BME280;54166;53.172;-6.552;2022-07-10T11:38:37;100358.71;;;22.27;37.07
39715;BME280;54166;53.172;-6.552;2022-07-10T11:41:04;100357.77;;;21.95;37.04
39715;BME280;54166;53.172;-6.552;2022-07-10T11:43:46;100357.66;;;21.93;37.07
39715;BME280;54166;53.172;-6.552;2022-07-10T11:46:13;100358.65;;;22.26;37.10
39715;BME280;54166;53.172;-6.552;2022-07-10T11:48:41;100358.15;;;22.27;37.03
39715;BME280;54166;53.172;-6.552;2022-07-10T11:51:17;100356.28;;;21.94;37.10
39715;BME280;54166;53.172;-6.552;2022-07-10T11:53:53;100351.51;;;21.92;37.04
39715;BME280;54166;53.172;-6.552;2022-07-10T11:56:21;100347.85;;;21.91;37.02
39715;BME280;54166;53.172;-6.552;2022-07-10T11:58:54;100347.21;;;22.26;36.94
39715;BME280;54166;53.172;-6.552;2022-07-10T12:01:22;100345.80;;;22.25;36.97
39715;BME280;54166;53.172;-6.552;2022-07-10T12:03:58;100344.33;;;21.93;37.03
39715;BME280;54166;53.172;-6.552;2022-07-10T12:06:26;100343.14;;;22.24;37.00
39715;BME280;54166;53.172;-6.552;2022-07-10T12:08:55;100339.89;;;22.25;37.00
39715;BME280;54166;53.172;-6.552;2022-07-10T12:11:22;100336.37;;;21.92;36.96
39715;BME280;54166;53.172;-6.552;2022-07-10T12:13:51;100337.60;;;21.94;37.10
39715;BME280;54166;53.172;-6.552;2022-07-10T12:16:19;100340.50;;;21.54;37.13
39715;BME280;54166;53.172;-6.552;2022-07-10T12:18:47;100338.91;;;21.55;37.18
39715;BME280;54166;53.172;-6.552;2022-07-10T12:21:15;100334.39;;;22.28;37.10
39715;BME280;54166;53.172;-6.552;2022-07-10T12:23:44;100332.19;;;21.95;37.19
39715;BME280;54166;53.172;-6.552;2022-07-10T12:26:12;100329.81;;;22.29;37.19
39715;BME280;54166;53.172;-6.552;2022-07-10T12:28:56;100331.60;;;21.56;37.19
39715;BME280;54166;53.172;-6.552;2022-07-10T12:31:25;100330.27;;;21.93;37.22
39715;BME280;54166;53.172;-6.552;2022-07-10T12:33:53;100327.99;;;21.54;37.13
39715;BME280;54166;53.172;-6.552;2022-07-10T12:36:21;100325.58;;;22.29;37.22
39715;BME280;54166;53.172;-6.552;2022-07-10T12:38:57;100320.66;;;21.96;37.29
39715;BME280;54166;53.172;-6.552;2022-07-10T12:41:24;100317.14;;;22.29;37.35
39715;BME280;54166;53.172;-6.552;2022-07-10T12:43:52;100314.37;;;21.57;37.36
39715;BME280;54166;53.172;-6.552;2022-07-10T12:46:22;100312.39;;;21.97;37.36
39715;BME280;54166;53.172;-6.552;2022-07-10T12:49:06;100313.30;;;21.58;37.46
39715;BME280;54166;53.172;-6.552;2022-07-10T12:51:42;100314.92;;;21.95;37.49
39715;BME280;54166;53.172;-6.552;2022-07-10T12:54:30;100311.11;;;21.56;37.50